sensor_id;sensor_type;location;lat;lon;timestamp;temperature;humidity
23671;DHT22;12012;51.998;7.614;2022-10-31T00:03:48;14.70;99.90
23671;DHT22;12012;51.998;7.614;2022-10-31T00:06:14;14.70;99.90
23671;DHT22;12012;51.998;7.614;2022-10-31T00:08:40;14.60;99.90
23671;DHT22;12012;51.998;7.614;2022-10-31T00:11:09;14.60;99.90
23671;DHT22;12012;51.998;7.614;2022-10-31T00:13:35;14.50;1.00
23671;DHT22;12012;51.998;7.614;2022-10-31T00:16:01;14.50;1.00
23671;DHT22;12012;51.998;7.614;2022-10-31T00:18:26;14.40;1.00
23671;DHT22;12012;51.998;7.614;2022-10-31T00:21:02;14.40;1.00
23671;DHT22;12012;51.998;7.614;2022-10-31T00:23:28;14.40;1.00
23671;DHT22;12012;51.998;7.614;2022-10-31T00:25:54;14.30;1.00
23671;DHT22;12012;51.998;7.614;2022-10-31T00:28:20;14.30;1.00
23671;DHT22;12012;51.998;7.614;2022-10-31T00:30:45;14.20;1.00
23671;DHT22;12012;51.998;7.614;2022-10-31T00:33:11;14.20;1.00
23671;DHT22;12012;51.998;7.614;2022-10-31T00:35:36;14.20;28.20
23671;DHT22;12012;51.998;7.614;2022-10-31T00:38:02;14.10;97.10
23671;DHT22;12012;51.998;7.614;2022-10-31T00:40:27;14.00;99.90
23671;DHT22;12012;51.998;7.614;2022-10-31T00:42:53;14.00;99.90
23671;DHT22;12012;51.998;7.614;2022-10-31T00:45:18;14.00;99.90
23671;DHT22;12012;51.998;7.614;2022-10-31T00:47:44;13.90;1.00
23671;DHT22;12012;51.998;7.614;2022-10-31T00:50:09;13.90;14.00
23671;DHT22;12012;51.998;7.614;2022-10-31T00:52:35;13.90;99.90
23671;DHT22;12012;51.998;7.614;2022-10-31T00:55:00;13.80;1.00
23671;DHT22;12012;51.998;7.614;2022-10-31T00:57:26;13.80;1.00
23671;DHT22;12012;51.998;7.614;2022-10-31T00:59:52;13.80;99.90
23671;DHT22;12012;51.998;7.614;2022-10-31T01:02:17;13.80;1.00
23671;DHT22;12012;51.998;7.614;2022-10-31T01:04:43;13.70;1.00
23671;DHT22;12012;51.998;7.614;2022-10-31T01:07:09;13.70;1.00
23671;DHT22;12012;51.998;7.614;2022-10-31T01:09:37;13.70;1.00
23671;DHT22;12012;51.998;7.614;2022-10-31T01:12:03;13.70;1.00
23671;DHT22;12012;51.998;7.614;2022-10-31T01:14:28;13.60;1.00
23671;DHT22;12012;51.998;7.614;2022-10-31T01:16:54;13.60;1.00
23671;DHT22;12012;51.998;7.614;2022-10-31T01:19:19;13.70;99.90
23671;DHT22;12012;51.998;7.614;2022-10-31T01:21:45;13.60;99.90
23671;DHT22;12012;51.998;7.614;2022-10-31T01:24:10;13.60;99.90
23671;DHT22;12012;51.998;7.614;2022-10-31T01:26:36;13.60;99.90
23671;DHT22;12012;51.998;7.614;2022-10-31T01:29:06;13.60;38.00
23671;DHT22;12012;51.998;7.614;2022-10-31T01:31:35;13.60;1.00
23671;DHT22;12012;51.998;7.614;2022-10-31T01:34:02;13.50;1.00
23671;DHT22;12012;51.998;7.614;2022-10-31T01:36:30;13.50;1.00
23671;DHT22;12012;51.998;7.614;2022-10-31T01:38:59;13.50;1.00
23671;DHT22;12012;51.998;7.614;2022-10-31T01:41:27;13.50;99.90
23671;DHT22;12012;51.998;7.614;2022-10-31T01:43:56;13.40;99.90
23671;DHT22;12012;51.998;7.614;2022-10-31T01:46:25;13.40;99.90
23671;DHT22;12012;51.998;7.614;2022-10-31T01:48:53;13.40;99.90
23671;DHT22;12012;51.998;7.614;2022-10-31T01:51:21;13.40;99.90
23671;DHT22;12012;51.998;7.614;2022-10-31T01:53:47;13.40;99.90
23671;DHT22;12012;51.998;7.614;2022-10-31T01:56:15;13.30;71.60
23671;DHT22;12012;51.998;7.614;2022-10-31T01:58:42;13.40;99.90
23671;DHT22;12012;51.998;7.614;2022-10-31T02:01:08;13.30;99.90
23671;DHT22;12012;51.998;7.614;2022-10-31T02:03:34;13.30;35.70
23671;DHT22;12012;51.998;7.614;2022-10-31T02:06:00;13.30;94.40
23671;DHT22;12012;51.998;7.614;2022-10-31T02:08:30;13.30;1.00
23671;DHT22;12012;51.998;7.614;2022-10-31T02:10:58;13.30;1.00
23671;DHT22;12012;51.998;7.614;2022-10-31T02:13:25;13.30;99.90
23671;DHT22;12012;51.998;7.614;2022-10-31T02:15:56;13.30;99.90
23671;DHT22;12012;51.998;7.614;2022-10-31T02:18:24;13.30;99.90
23671;DHT22;12012;51.998;7.614;2022-10-31T02:29:16;13.10;99.90
23671;DHT22;12012;51.998;7.614;2022-10-31T02:32:04;13.10;1.00
23671;DHT22;12012;51.998;7.614;2022-10-31T02:34:39;13.00;1.00
23671;DHT22;12012;51.998;7.614;2022-10-31T02:40:22;13.00;74.10
23671;DHT22;12012;51.998;7.614;2022-10-31T02:42:59;13.00;59.80
23671;DHT22;12012;51.998;7.614;2022-10-31T02:45:41;13.00;99.90
23671;DHT22;12012;51.998;7.614;2022-10-31T02:48:14;13.00;99.90
23671;DHT22;12012;51.998;7.614;2022-10-31T02:50:46;13.00;99.90
23671;DHT22;12012;51.998;7.614;2022-10-31T02:53:15;13.00;1.00
23671;DHT22;12012;51.998;7.614;2022-10-31T02:55:51;12.90;99.90
23671;DHT22;12012;51.998;7.614;2022-10-31T02:58:21;12.90;99.90
23671;DHT22;12012;51.998;7.614;2022-10-31T03:03:53;12.90;99.90
23671;DHT22;12012;51.998;7.614;2022-10-31T03:09:22;12.90;99.90
23671;DHT22;12012;51.998;7.614;2022-10-31T03:12:07;12.80;99.90
23671;DHT22;12012;51.998;7.614;2022-10-31T03:14:43;12.80;99.90
23671;DHT22;12012;51.998;7.614;2022-10-31T03:17:26;12.80;99.90
23671;DHT22;12012;51.998;7.614;2022-10-31T03:19:55;12.70;99.90
23671;DHT22;12012;51.998;7.614;2022-10-31T03:22:25;12.70;99.90
23671;DHT22;12012;51.998;7.614;2022-10-31T03:24:54;12.70;99.90
23671;DHT22;12012;51.998;7.614;2022-10-31T03:27:25;12.60;1.00
23671;DHT22;12012;51.998;7.614;2022-10-31T03:29:54;12.60;99.90
23671;DHT22;12012;51.998;7.614;2022-10-31T03:32:25;12.60;99.90
23671;DHT22;12012;51.998;7.614;2022-10-31T03:34:54;12.60;99.90
23671;DHT22;12012;51.998;7.614;2022-10-31T03:37:22;12.60;99.90
23671;DHT22;12012;51.998;7.614;2022-10-31T03:39:51;12.50;99.90
23671;DHT22;12012;51.998;7.614;2022-10-31T03:42:22;12.50;99.90
23671;DHT22;12012;51.998;7.614;2022-10-31T03:44:55;12.50;99.90
23671;DHT22;12012;51.998;7.614;2022-10-31T03:47:22;12.50;99.90
23671;DHT22;12012;51.998;7.614;2022-10-31T03:49:48;12.40;99.90
23671;DHT22;12012;51.998;7.614;2022-10-31T03:52:25;12.40;99.90
23671;DHT22;12012;51.998;7.614;2022-10-31T03:54:56;12.40;99.90
23671;DHT22;12012;51.998;7.614;2022-10-31T03:57:35;12.40;99.90
23671;DHT22;12012;51.998;7.614;2022-10-31T04:00:08;12.30;99.90
23671;DHT22;12012;51.998;7.614;2022-10-31T04:02:38;12.30;99.90
23671;DHT22;12012;51.998;7.614;2022-10-31T04:05:05;12.20;99.90
23671;DHT22;12012;51.998;7.614;2022-10-31T04:07:35;12.20;99.90
23671;DHT22;12012;51.998;7.614;2022-10-31T04:10:04;12.20;99.90
23671;DHT22;12012;51.998;7.614;2022-10-31T04:12:32;12.10;99.90
23671;DHT22;12012;51.998;7.614;2022-10-31T04:15:00;12.10;99.90
23671;DHT22;12012;51.998;7.614;2022-10-31T04:17:30;12.00;99.90
23671;DHT22;12012;51.998;7.614;2022-10-31T04:19:59;12.00;99.90
23671;DHT22;12012;51.998;7.614;2022-10-31T04:22:25;12.00;99.90
23671;DHT22;12012;51.998;7.614;2022-10-31T04:24:51;11.90;99.90
23671;DHT22;12012;51.998;7.614;2022-10-31T04:27:16;11.90;99.90
23671;DHT22;12012;51.998;7.614;2022-10-31T04:29:42;11.90;99.90
23671;DHT22;12012;51.998;7.614;2022-10-31T04:32:07;11.80;99.90
23671;DHT22;12012;51.998;7.614;2022-10-31T04:34:33;11.90;99.90
23671;DHT22;12012;51.998;7.614;2022-10-31T04:36:58;11.80;99.90
23671;DHT22;12012;51.998;7.614;2022-10-31T04:39:24;11.70;99.90
23671;DHT22;12012;51.998;7.614;2022-10-31T04:41:49;11.70;99.90
23671;DHT22;12012;51.998;7.614;2022-10-31T04:44:15;11.70;99.90
23671;DHT22;12012;51.998;7.614;2022-10-31T04:46:41;11.70;99.90
23671;DHT22;12012;51.998;7.614;2022-10-31T04:49:07;11.60;99.90
23671;DHT22;12012;51.998;7.614;2022-10-31T04:51:32;11.60;99.90
23671;DHT22;12012;51.998;7.614;2022-10-31T04:53:58;11.60;99.90
23671;DHT22;12012;51.998;7.614;2022-10-31T04:56:23;11.60;99.90
23671;DHT22;12012;51.998;7.614;2022-10-31T04:58:49;11.60;99.90
23671;DHT22;12012;51.998;7.614;2022-10-31T05:01:14;11.60;99.90
23671;DHT22;12012;51.998;7.614;2022-10-31T05:03:40;11.50;99.90
23671;DHT22;12012;51.998;7.614;2022-10-31T05:06:06;11.50;99.90
23671;DHT22;12012;51.998;7.614;2022-10-31T05:08:32;11.50;99.90
23671;DHT22;12012;51.998;7.614;2022-10-31T05:11:02;11.40;99.90
23671;DHT22;12012;51.998;7.614;2022-10-31T05:13:28;11.40;1.00
23671;DHT22;12012;51.998;7.614;2022-10-31T05:15:54;11.40;99.90
23671;DHT22;12012;51.998;7.614;2022-10-31T05:18:19;11.30;99.90
23671;DHT22;12012;51.998;7.614;2022-10-31T05:20:45;11.30;1.00
23671;DHT22;12012;51.998;7.614;2022-10-31T05:23:11;11.30;1.00
23671;DHT22;12012;51.998;7.614;2022-10-31T05:25:36;11.30;1.00
23671;DHT22;12012;51.998;7.614;2022-10-31T05:28:02;11.30;1.00
23671;DHT22;12012;51.998;7.614;2022-10-31T05:30:30;11.20;1.00
23671;DHT22;12012;51.998;7.614;2022-10-31T05:32:56;11.20;1.00
23671;DHT22;12012;51.998;7.614;2022-10-31T05:35:25;11.20;1.00
23671;DHT22;12012;51.998;7.614;2022-10-31T05:37:50;11.20;1.00
23671;DHT22;12012;51.998;7.614;2022-10-31T05:40:17;11.20;1.00
23671;DHT22;12012;51.998;7.614;2022-10-31T05:42:44;11.20;1.00
23671;DHT22;12012;51.998;7.614;2022-10-31T05:45:12;11.20;1.00
23671;DHT22;12012;51.998;7.614;2022-10-31T05:47:38;11.20;1.00
23671;DHT22;12012;51.998;7.614;2022-10-31T05:50:04;11.10;1.00
23671;DHT22;12012;51.998;7.614;2022-10-31T05:52:30;11.10;1.00
23671;DHT22;12012;51.998;7.614;2022-10-31T05:54:55;11.10;1.00
23671;DHT22;12012;51.998;7.614;2022-10-31T05:57:21;11.10;1.00
23671;DHT22;12012;51.998;7.614;2022-10-31T05:59:46;11.00;1.00
23671;DHT22;12012;51.998;7.614;2022-10-31T06:02:12;11.10;1.00
23671;DHT22;12012;51.998;7.614;2022-10-31T06:04:38;11.00;1.00
23671;DHT22;12012;51.998;7.614;2022-10-31T06:07:03;11.00;1.00
23671;DHT22;12012;51.998;7.614;2022-10-31T06:09:29;11.00;1.00
23671;DHT22;12012;51.998;7.614;2022-10-31T06:11:54;11.00;1.00
23671;DHT22;12012;51.998;7.614;2022-10-31T06:14:20;10.90;1.00
23671;DHT22;12012;51.998;7.614;2022-10-31T06:16:45;10.90;1.00
23671;DHT22;12012;51.998;7.614;2022-10-31T06:19:11;10.90;1.00
23671;DHT22;12012;51.998;7.614;2022-10-31T06:21:36;10.90;1.00
23671;DHT22;12012;51.998;7.614;2022-10-31T06:24:02;10.90;1.00
23671;DHT22;12012;51.998;7.614;2022-10-31T06:26:28;10.90;1.00
23671;DHT22;12012;51.998;7.614;2022-10-31T06:28:53;10.90;1.00
23671;DHT22;12012;51.998;7.614;2022-10-31T06:31:19;10.80;1.00
23671;DHT22;12012;51.998;7.614;2022-10-31T06:33:44;10.80;1.00
23671;DHT22;12012;51.998;7.614;2022-10-31T06:36:10;10.80;1.00
23671;DHT22;12012;51.998;7.614;2022-10-31T06:38:35;10.80;1.00
23671;DHT22;12012;51.998;7.614;2022-10-31T06:41:05;10.80;1.00
23671;DHT22;12012;51.998;7.614;2022-10-31T06:43:31;10.80;1.00
23671;DHT22;12012;51.998;7.614;2022-10-31T06:45:57;10.80;1.00
23671;DHT22;12012;51.998;7.614;2022-10-31T06:48:23;10.80;1.00
23671;DHT22;12012;51.998;7.614;2022-10-31T06:50:48;10.80;1.00
23671;DHT22;12012;51.998;7.614;2022-10-31T06:53:14;10.80;1.00
23671;DHT22;12012;51.998;7.614;2022-10-31T06:55:40;10.80;1.00
23671;DHT22;12012;51.998;7.614;2022-10-31T06:58:06;10.90;1.00
23671;DHT22;12012;51.998;7.614;2022-10-31T07:00:32;10.90;1.00
23671;DHT22;12012;51.998;7.614;2022-10-31T07:02:58;11.00;1.00
23671;DHT22;12012;51.998;7.614;2022-10-31T07:05:25;11.00;1.00
23671;DHT22;12012;51.998;7.614;2022-10-31T07:08:11;11.10;1.00
23671;DHT22;12012;51.998;7.614;2022-10-31T07:10:38;11.20;1.00
23671;DHT22;12012;51.998;7.614;2022-10-31T07:13:06;11.30;1.00
23671;DHT22;12012;51.998;7.614;2022-10-31T07:15:36;11.30;1.00
23671;DHT22;12012;51.998;7.614;2022-10-31T07:18:04;11.40;1.00
23671;DHT22;12012;51.998;7.614;2022-10-31T07:20:30;11.50;1.00
23671;DHT22;12012;51.998;7.614;2022-10-31T07:22:57;11.60;1.00
23671;DHT22;12012;51.998;7.614;2022-10-31T07:25:23;11.70;1.00
23671;DHT22;12012;51.998;7.614;2022-10-31T07:27:49;11.70;1.00
23671;DHT22;12012;51.998;7.614;2022-10-31T07:30:15;11.80;1.00
23671;DHT22;12012;51.998;7.614;2022-10-31T07:32:45;11.90;1.00
23671;DHT22;12012;51.998;7.614;2022-10-31T07:35:14;11.90;1.00
23671;DHT22;12012;51.998;7.614;2022-10-31T07:37:40;12.00;1.00
23671;DHT22;12012;51.998;7.614;2022-10-31T07:40:07;12.10;1.00
23671;DHT22;12012;51.998;7.614;2022-10-31T07:42:41;12.20;1.00
23671;DHT22;12012;51.998;7.614;2022-10-31T07:45:09;12.30;1.00
23671;DHT22;12012;51.998;7.614;2022-10-31T07:50:14;12.50;99.90
23671;DHT22;12012;51.998;7.614;2022-10-31T07:52:40;12.60;99.90
23671;DHT22;12012;51.998;7.614;2022-10-31T07:55:06;12.70;99.90
23671;DHT22;12012;51.998;7.614;2022-10-31T07:57:32;12.90;99.90
23671;DHT22;12012;51.998;7.614;2022-10-31T07:59:57;13.00;99.90
23671;DHT22;12012;51.998;7.614;2022-10-31T08:02:24;13.30;99.90
23671;DHT22;12012;51.998;7.614;2022-10-31T08:04:50;13.40;99.90
23671;DHT22;12012;51.998;7.614;2022-10-31T08:07:15;13.60;99.90
23671;DHT22;12012;51.998;7.614;2022-10-31T08:09:41;13.80;99.90
23671;DHT22;12012;51.998;7.614;2022-10-31T08:12:07;14.10;99.90
23671;DHT22;12012;51.998;7.614;2022-10-31T08:14:32;14.30;99.90
23671;DHT22;12012;51.998;7.614;2022-10-31T08:16:58;14.40;1.00
23671;DHT22;12012;51.998;7.614;2022-10-31T08:19:23;14.60;99.90
23671;DHT22;12012;51.998;7.614;2022-10-31T08:21:53;14.70;1.00
23671;DHT22;12012;51.998;7.614;2022-10-31T08:24:20;14.90;99.90
23671;DHT22;12012;51.998;7.614;2022-10-31T08:26:46;15.00;1.00
23671;DHT22;12012;51.998;7.614;2022-10-31T08:29:11;15.10;99.90
23671;DHT22;12012;51.998;7.614;2022-10-31T08:31:37;15.10;1.00
23671;DHT22;12012;51.998;7.614;2022-10-31T08:34:02;15.30;99.90
23671;DHT22;12012;51.998;7.614;2022-10-31T08:36:28;15.30;1.00
23671;DHT22;12012;51.998;7.614;2022-10-31T08:38:54;15.30;1.00
23671;DHT22;12012;51.998;7.614;2022-10-31T08:41:20;15.30;99.90
23671;DHT22;12012;51.998;7.614;2022-10-31T08:43:46;15.30;99.90
23671;DHT22;12012;51.998;7.614;2022-10-31T08:46:12;15.40;99.90
23671;DHT22;12012;51.998;7.614;2022-10-31T08:48:37;15.40;99.90
23671;DHT22;12012;51.998;7.614;2022-10-31T08:51:03;15.40;1.00
23671;DHT22;12012;51.998;7.614;2022-10-31T08:53:29;15.40;1.00
23671;DHT22;12012;51.998;7.614;2022-10-31T08:55:55;15.40;1.00
23671;DHT22;12012;51.998;7.614;2022-10-31T08:58:22;15.40;1.00
23671;DHT22;12012;51.998;7.614;2022-10-31T09:00:50;15.40;1.00
23671;DHT22;12012;51.998;7.614;2022-10-31T09:03:20;15.40;1.00
23671;DHT22;12012;51.998;7.614;2022-10-31T09:05:46;15.50;1.00
23671;DHT22;12012;51.998;7.614;2022-10-31T09:08:12;15.60;1.00
23671;DHT22;12012;51.998;7.614;2022-10-31T09:10:38;15.60;99.90
23671;DHT22;12012;51.998;7.614;2022-10-31T09:13:13;15.70;99.90
23671;DHT22;12012;51.998;7.614;2022-10-31T09:15:41;15.80;99.90
23671;DHT22;12012;51.998;7.614;2022-10-31T09:18:08;16.00;1.00
23671;DHT22;12012;51.998;7.614;2022-10-31T09:20:36;16.10;99.90
23671;DHT22;12012;51.998;7.614;2022-10-31T09:23:04;16.20;99.90
23671;DHT22;12012;51.998;7.614;2022-10-31T09:25:30;16.30;65.10
23671;DHT22;12012;51.998;7.614;2022-10-31T09:28:00;16.50;1.00
23671;DHT22;12012;51.998;7.614;2022-10-31T09:30:27;16.70;99.90
23671;DHT22;12012;51.998;7.614;2022-10-31T09:33:02;16.90;99.90
23671;DHT22;12012;51.998;7.614;2022-10-31T09:35:27;17.10;23.10
23671;DHT22;12012;51.998;7.614;2022-10-31T09:37:59;17.30;1.00
23671;DHT22;12012;51.998;7.614;2022-10-31T09:43:15;17.60;99.90
23671;DHT22;12012;51.998;7.614;2022-10-31T09:45:50;18.00;52.50
23671;DHT22;12012;51.998;7.614;2022-10-31T09:51:25;18.50;99.90
23671;DHT22;12012;51.998;7.614;2022-10-31T09:54:05;18.80;99.90
23671;DHT22;12012;51.998;7.614;2022-10-31T09:56:32;19.10;99.90
23671;DHT22;12012;51.998;7.614;2022-10-31T09:58:59;19.30;1.00
23671;DHT22;12012;51.998;7.614;2022-10-31T10:04:44;19.70;99.90
23671;DHT22;12012;51.998;7.614;2022-10-31T10:07:38;19.80;99.90
23671;DHT22;12012;51.998;7.614;2022-10-31T10:11:02;19.80;99.90
23671;DHT22;12012;51.998;7.614;2022-10-31T10:13:14;19.80;99.90
23671;DHT22;12012;51.998;7.614;2022-10-31T10:26:20;20.10;99.90
23671;DHT22;12012;51.998;7.614;2022-10-31T10:29:02;20.60;99.90
23671;DHT22;12012;51.998;7.614;2022-10-31T10:31:37;20.90;99.90
23671;DHT22;12012;51.998;7.614;2022-10-31T10:34:26;20.90;62.60
23671;DHT22;12012;51.998;7.614;2022-10-31T10:37:07;20.90;34.40
23671;DHT22;12012;51.998;7.614;2022-10-31T10:39:44;21.10;1.00
23671;DHT22;12012;51.998;7.614;2022-10-31T10:42:14;21.50;1.00
23671;DHT22;12012;51.998;7.614;2022-10-31T10:44:58;21.70;1.00
23671;DHT22;12012;51.998;7.614;2022-10-31T10:47:46;21.70;1.00
23671;DHT22;12012;51.998;7.614;2022-10-31T10:50:18;21.70;1.00
23671;DHT22;12012;51.998;7.614;2022-10-31T10:58:02;21.50;1.00
23671;DHT22;12012;51.998;7.614;2022-10-31T11:00:44;21.30;1.00
23671;DHT22;12012;51.998;7.614;2022-10-31T11:03:15;21.30;1.00
23671;DHT22;12012;51.998;7.614;2022-10-31T11:05:49;21.30;1.00
23671;DHT22;12012;51.998;7.614;2022-10-31T11:11:03;21.20;1.00
23671;DHT22;12012;51.998;7.614;2022-10-31T11:13:30;21.10;1.00
23671;DHT22;12012;51.998;7.614;2022-10-31T11:16:06;21.20;1.00
23671;DHT22;12012;51.998;7.614;2022-10-31T11:18:35;21.60;1.00
23671;DHT22;12012;51.998;7.614;2022-10-31T11:21:03;21.90;1.00
23671;DHT22;12012;51.998;7.614;2022-10-31T11:23:31;22.80;99.90
23671;DHT22;12012;51.998;7.614;2022-10-31T11:26:03;23.80;99.90
23671;DHT22;12012;51.998;7.614;2022-10-31T11:28:30;25.00;99.90
23671;DHT22;12012;51.998;7.614;2022-10-31T11:31:07;25.60;99.90
23671;DHT22;12012;51.998;7.614;2022-10-31T11:33:46;26.20;99.90
23671;DHT22;12012;51.998;7.614;2022-10-31T11:36:24;27.00;99.90
23671;DHT22;12012;51.998;7.614;2022-10-31T11:38:51;27.80;99.90
23671;DHT22;12012;51.998;7.614;2022-10-31T11:41:37;28.00;35.90
23671;DHT22;12012;51.998;7.614;2022-10-31T11:44:16;28.20;16.50
23671;DHT22;12012;51.998;7.614;2022-10-31T11:46:50;28.70;8.20
23671;DHT22;12012;51.998;7.614;2022-10-31T11:49:25;29.30;1.00
23671;DHT22;12012;51.998;7.614;2022-10-31T11:51:55;30.00;1.00
23671;DHT22;12012;51.998;7.614;2022-10-31T11:54:28;30.20;1.00
23671;DHT22;12012;51.998;7.614;2022-10-31T11:56:55;29.60;1.00
23671;DHT22;12012;51.998;7.614;2022-10-31T11:59:31;28.70;1.00
23671;DHT22;12012;51.998;7.614;2022-10-31T12:01:59;28.10;1.00
23671;DHT22;12012;51.998;7.614;2022-10-31T12:04:41;27.20;1.00
23671;DHT22;12012;51.998;7.614;2022-10-31T12:07:08;26.30;1.00
23671;DHT22;12012;51.998;7.614;2022-10-31T12:09:35;25.50;1.00
23671;DHT22;12012;51.998;7.614;2022-10-31T12:15:29;24.10;1.00
23671;DHT22;12012;51.998;7.614;2022-10-31T12:18:21;23.50;1.00
23671;DHT22;12012;51.998;7.614;2022-10-31T12:23:48;22.60;17.60
23671;DHT22;12012;51.998;7.614;2022-10-31T12:26:36;22.20;23.20
23671;DHT22;12012;51.998;7.614;2022-10-31T12:34:26;21.70;59.00
23671;DHT22;12012;51.998;7.614;2022-10-31T12:37:10;21.70;63.10
23671;DHT22;12012;51.998;7.614;2022-10-31T12:39:56;21.80;68.70
23671;DHT22;12012;51.998;7.614;2022-10-31T12:42:43;21.70;75.80
23671;DHT22;12012;51.998;7.614;2022-10-31T12:45:32;21.60;85.80
23671;DHT22;12012;51.998;7.614;2022-10-31T12:56:23;21.50;99.90
23671;DHT22;12012;51.998;7.614;2022-10-31T12:58:56;21.40;99.90
23671;DHT22;12012;51.998;7.614;2022-10-31T13:01:42;21.30;99.90
23671;DHT22;12012;51.998;7.614;2022-10-31T13:04:19;21.10;99.90
23671;DHT22;12012;51.998;7.614;2022-10-31T13:06:53;20.90;99.90
23671;DHT22;12012;51.998;7.614;2022-10-31T13:09:28;20.80;99.90
23671;DHT22;12012;51.998;7.614;2022-10-31T13:12:00;20.70;99.90
23671;DHT22;12012;51.998;7.614;2022-10-31T13:16:59;20.60;99.90
23671;DHT22;12012;51.998;7.614;2022-10-31T13:19:33;20.50;99.90
23671;DHT22;12012;51.998;7.614;2022-10-31T13:22:17;20.30;99.90
23671;DHT22;12012;51.998;7.614;2022-10-31T13:25:04;20.30;99.90
23671;DHT22;12012;51.998;7.614;2022-10-31T13:30:19;20.20;99.90
23671;DHT22;12012;51.998;7.614;2022-10-31T13:36:30;20.00;99.90
23671;DHT22;12012;51.998;7.614;2022-10-31T13:44:23;19.80;99.90
23671;DHT22;12012;51.998;7.614;2022-10-31T13:46:50;19.70;99.90
23671;DHT22;12012;51.998;7.614;2022-10-31T13:49:39;19.70;99.90
23671;DHT22;12012;51.998;7.614;2022-10-31T13:54:38;19.50;99.90
23671;DHT22;12012;51.998;7.614;2022-10-31T13:57:42;19.50;99.90
23671;DHT22;12012;51.998;7.614;2022-10-31T14:02:49;19.40;99.90
23671;DHT22;12012;51.998;7.614;2022-10-31T14:07:47;19.40;99.90
23671;DHT22;12012;51.998;7.614;2022-10-31T14:10:35;19.40;99.90
23671;DHT22;12012;51.998;7.614;2022-10-31T14:15:33;19.30;1.00
23671;DHT22;12012;51.998;7.614;2022-10-31T14:18:06;19.30;1.00
23671;DHT22;12012;51.998;7.614;2022-10-31T14:20:41;19.30;1.00
23671;DHT22;12012;51.998;7.614;2022-10-31T14:25:37;19.20;1.00
23671;DHT22;12012;51.998;7.614;2022-10-31T14:28:22;19.20;1.00
23671;DHT22;12012;51.998;7.614;2022-10-31T14:30:57;19.20;1.00
23671;DHT22;12012;51.998;7.614;2022-10-31T14:33:26;19.10;1.00
23671;DHT22;12012;51.998;7.614;2022-10-31T14:36:08;19.10;1.00
23671;DHT22;12012;51.998;7.614;2022-10-31T14:44:20;19.00;1.00
23671;DHT22;12012;51.998;7.614;2022-10-31T14:47:02;19.00;1.00
23671;DHT22;12012;51.998;7.614;2022-10-31T14:52:20;19.00;1.00
23671;DHT22;12012;51.998;7.614;2022-10-31T14:54:52;19.00;1.00
23671;DHT22;12012;51.998;7.614;2022-10-31T14:57:37;18.90;1.00
23671;DHT22;12012;51.998;7.614;2022-10-31T15:00:12;18.90;54.60
23671;DHT22;12012;51.998;7.614;2022-10-31T15:05:20;18.80;21.00
23671;DHT22;12012;51.998;7.614;2022-10-31T15:07:59;18.80;94.40
23671;DHT22;12012;51.998;7.614;2022-10-31T15:10:26;18.70;45.90
23671;DHT22;12012;51.998;7.614;2022-10-31T15:12:52;18.70;99.90
23671;DHT22;12012;51.998;7.614;2022-10-31T15:15:25;18.60;99.90
23671;DHT22;12012;51.998;7.614;2022-10-31T15:17:55;18.60;99.90
23671;DHT22;12012;51.998;7.614;2022-10-31T15:20:25;18.60;99.90
23671;DHT22;12012;51.998;7.614;2022-10-31T15:22:51;18.60;99.90
23671;DHT22;12012;51.998;7.614;2022-10-31T15:25:20;18.50;99.90
23671;DHT22;12012;51.998;7.614;2022-10-31T15:27:50;18.50;99.90
23671;DHT22;12012;51.998;7.614;2022-10-31T15:30:24;18.40;99.90
23671;DHT22;12012;51.998;7.614;2022-10-31T15:32:50;18.40;99.90
23671;DHT22;12012;51.998;7.614;2022-10-31T15:35:24;18.40;99.90
23671;DHT22;12012;51.998;7.614;2022-10-31T15:37:54;18.30;99.90
23671;DHT22;12012;51.998;7.614;2022-10-31T15:40:22;18.30;99.90
23671;DHT22;12012;51.998;7.614;2022-10-31T15:43:00;18.20;99.90
23671;DHT22;12012;51.998;7.614;2022-10-31T15:45:28;18.10;99.90
23671;DHT22;12012;51.998;7.614;2022-10-31T15:48:03;18.10;99.90
23671;DHT22;12012;51.998;7.614;2022-10-31T15:50:56;18.00;99.90
23671;DHT22;12012;51.998;7.614;2022-10-31T15:53:31;17.90;1.00
23671;DHT22;12012;51.998;7.614;2022-10-31T15:56:02;17.90;99.90
23671;DHT22;12012;51.998;7.614;2022-10-31T15:58:28;17.80;99.90
23671;DHT22;12012;51.998;7.614;2022-10-31T16:01:17;17.70;1.00
23671;DHT22;12012;51.998;7.614;2022-10-31T16:03:44;17.60;1.00
23671;DHT22;12012;51.998;7.614;2022-10-31T16:06:21;17.50;1.00
23671;DHT22;12012;51.998;7.614;2022-10-31T16:08:49;17.40;1.00
23671;DHT22;12012;51.998;7.614;2022-10-31T16:11:35;17.30;1.00
23671;DHT22;12012;51.998;7.614;2022-10-31T16:14:16;17.30;1.00
23671;DHT22;12012;51.998;7.614;2022-10-31T16:16:48;17.20;1.00
23671;DHT22;12012;51.998;7.614;2022-10-31T16:19:24;17.10;1.00
23671;DHT22;12012;51.998;7.614;2022-10-31T16:22:02;17.00;49.90
23671;DHT22;12012;51.998;7.614;2022-10-31T16:24:31;16.90;22.10
23671;DHT22;12012;51.998;7.614;2022-10-31T16:27:04;16.80;96.70
23671;DHT22;12012;51.998;7.614;2022-10-31T16:29:38;16.80;99.90
23671;DHT22;12012;51.998;7.614;2022-10-31T16:32:04;16.70;99.90
23671;DHT22;12012;51.998;7.614;2022-10-31T16:34:30;16.70;1.00
23671;DHT22;12012;51.998;7.614;2022-10-31T16:36:55;16.60;99.90
23671;DHT22;12012;51.998;7.614;2022-10-31T16:39:21;16.60;99.90
23671;DHT22;12012;51.998;7.614;2022-10-31T16:41:50;16.60;99.90
23671;DHT22;12012;51.998;7.614;2022-10-31T16:44:19;16.50;99.90
23671;DHT22;12012;51.998;7.614;2022-10-31T16:46:46;16.40;99.90
23671;DHT22;12012;51.998;7.614;2022-10-31T16:49:12;16.40;1.00
23671;DHT22;12012;51.998;7.614;2022-10-31T16:51:38;16.40;1.00
23671;DHT22;12012;51.998;7.614;2022-10-31T16:54:03;16.40;1.00
23671;DHT22;12012;51.998;7.614;2022-10-31T16:56:33;16.30;1.00
23671;DHT22;12012;51.998;7.614;2022-10-31T16:59:02;16.30;1.00
23671;DHT22;12012;51.998;7.614;2022-10-31T17:01:29;16.20;1.00
23671;DHT22;12012;51.998;7.614;2022-10-31T17:03:55;16.20;99.90
23671;DHT22;12012;51.998;7.614;2022-10-31T17:06:21;16.20;99.90
23671;DHT22;12012;51.998;7.614;2022-10-31T17:08:46;16.10;99.90
23671;DHT22;12012;51.998;7.614;2022-10-31T17:11:16;16.10;99.90
23671;DHT22;12012;51.998;7.614;2022-10-31T17:13:42;16.10;1.00
23671;DHT22;12012;51.998;7.614;2022-10-31T17:16:08;16.00;1.00
23671;DHT22;12012;51.998;7.614;2022-10-31T17:18:33;16.00;99.90
23671;DHT22;12012;51.998;7.614;2022-10-31T17:21:01;16.00;1.00
23671;DHT22;12012;51.998;7.614;2022-10-31T17:23:28;16.00;52.10
23671;DHT22;12012;51.998;7.614;2022-10-31T17:25:54;15.90;99.90
23671;DHT22;12012;51.998;7.614;2022-10-31T17:28:20;15.90;34.00
23671;DHT22;12012;51.998;7.614;2022-10-31T17:30:46;15.90;1.00
23671;DHT22;12012;51.998;7.614;2022-10-31T17:33:12;15.90;99.90
23671;DHT22;12012;51.998;7.614;2022-10-31T17:35:39;15.90;99.90
23671;DHT22;12012;51.998;7.614;2022-10-31T17:38:05;15.90;99.90
23671;DHT22;12012;51.998;7.614;2022-10-31T17:40:31;15.80;99.90
23671;DHT22;12012;51.998;7.614;2022-10-31T17:42:56;15.80;93.00